Time;durP1;ratioP1;P1;durP2;ratioP2;P2;SDS_P1;SDS_P2;PMS_P1;PMS_P2;Temp;Humidity;BMP_temperature;BMP_pressure;BME280_temperature;BME280_humidity;BME280_pressure;Samples;Min_cycle;Max_cycle;Signal;HPM_P1;HPM_P2
2023/12/15 00:01:08;;;;;;;11.17;5.90;;;;;;;4.51;100.00;147328.25;5002911;28;20230;-54
2023/12/15 00:03:35;;;;;;;13.97;7.27;;;;;;;4.43;100.00;147310.88;5005649;28;20224;-53
2023/12/15 00:06:02;;;;;;;10.90;6.17;;;;;;;4.40;100.00;147303.44;5004846;28;20216;-55
2023/12/15 00:08:29;;;;;;;9.93;5.90;;;;;;;4.43;100.00;147310.88;5005262;28;20228;-56
2023/12/15 00:10:57;;;;;;;11.50;6.43;;;;;;;4.47;100.00;147318.34;4999708;28;20232;-55
2023/12/15 00:13:23;;;;;;;12.30;5.97;;;;;;;4.46;100.00;147315.84;5009816;28;20226;-53
2023/12/15 00:15:50;;;;;;;9.60;5.13;;;;;;;4.48;100.00;147320.81;5001394;28;20572;-56
2023/12/15 00:18:17;;;;;;;9.93;6.27;;;;;;;4.43;100.00;147310.88;4995725;28;20715;-56
2023/12/15 00:20:43;;;;;;;10.87;6.67;;;;;;;4.44;100.00;147312.09;5007586;28;20708;-56
2023/12/15 00:23:10;;;;;;;12.13;5.90;;;;;;;4.40;100.00;147303.44;5003573;28;20239;-55
2023/12/15 00:25:37;;;;;;;10.90;5.17;;;;;;;4.36;100.00;147292.25;5010353;28;20568;-53
2023/12/15 00:28:05;;;;;;;10.70;6.10;;;;;;;4.34;100.00;147287.31;5006326;28;20229;-55
2023/12/15 00:30:31;;;;;;;14.07;6.07;;;;;;;4.28;100.00;147274.91;5005641;28;20572;-55
2023/12/15 00:32:58;;;;;;;10.30;5.67;;;;;;;4.23;100.00;147262.53;5004089;28;20235;-55
2023/12/15 00:35:25;;;;;;;9.63;5.73;;;;;;;4.21;100.00;147256.31;5006366;28;20220;-55
2023/12/15 00:37:51;;;;;;;11.77;5.80;;;;;;;4.21;100.00;147257.59;5000316;28;20227;-56
2023/12/15 00:40:18;;;;;;;14.17;5.50;;;;;;;4.19;100.00;147251.34;5000837;28;20236;-54
2023/12/15 00:42:44;;;;;;;11.10;6.17;;;;;;;4.17;100.00;147247.66;4999760;28;20232;-53
2023/12/15 00:45:12;;;;;;;10.70;6.20;;;;;;;4.17;100.00;147247.66;5004337;28;20219;-55
2023/12/15 00:47:39;;;;;;;11.07;5.80;;;;;;;4.19;100.00;147251.34;5005797;28;20707;-55
2023/12/15 00:50:07;;;;;;;10.23;5.63;;;;;;;4.22;100.00;147258.81;5002689;28;20232;-53
2023/12/15 00:52:34;;;;;;;12.43;7.40;;;;;;;4.22;100.00;147260.06;5005551;28;20237;-56
2023/12/15 00:55:00;;;;;;;12.60;7.53;;;;;;;4.24;100.00;147264.97;5003500;28;20228;-55
2023/12/15 00:57:27;;;;;;;17.90;6.83;;;;;;;4.31;100.00;147279.84;5002959;28;20225;-55
2023/12/15 00:59:53;;;;;;;14.33;6.80;;;;;;;4.31;100.00;147281.13;4991033;28;20325;-56
2023/12/15 01:02:21;;;;;;;12.47;6.77;;;;;;;4.30;100.00;147278.66;5002514;28;20236;-53
2023/12/15 01:04:48;;;;;;;14.43;6.80;;;;;;;4.24;100.00;147263.75;5002729;28;20232;-55
2023/12/15 01:07:15;;;;;;;18.60;6.87;;;;;;;4.21;100.00;147257.59;5002852;28;20595;-54
2023/12/15 01:09:41;;;;;;;15.17;6.30;;;;;;;4.20;100.00;147255.09;5007488;28;20239;-55
2023/12/15 01:12:08;;;;;;;11.93;6.67;;;;;;;4.26;100.00;147269.94;5001050;28;20386;-53
2023/12/15 01:14:34;;;;;;;10.70;6.30;;;;;;;4.35;100.00;147291.03;5004237;28;20212;-56
2023/12/15 01:17:01;;;;;;;9.30;5.80;;;;;;;4.28;100.00;147273.69;5002662;28;20236;-54
2023/12/15 01:19:29;;;;;;;12.37;6.13;;;;;;;4.26;100.00;147269.94;5005177;28;20318;-56
2023/12/15 01:21:55;;;;;;;10.20;6.23;;;;;;;4.22;100.00;147258.81;5001680;28;20236;-55
2023/12/15 01:24:22;;;;;;;12.00;6.17;;;;;;;4.20;100.00;147255.09;5003777;28;20236;-55
2023/12/15 01:26:50;;;;;;;17.47;6.80;;;;;;;4.19;100.00;147252.63;5003355;28;20225;-54
2023/12/15 01:29:16;;;;;;;12.30;7.20;;;;;;;4.22;100.00;147258.81;5004570;28;20319;-56
2023/12/15 01:31:43;;;;;;;15.40;7.90;;;;;;;4.20;100.00;147253.84;5005652;28;20227;-56
2023/12/15 01:34:09;;;;;;;12.63;7.10;;;;;;;4.22;100.00;147258.81;5001598;28;20220;-53
2023/12/15 01:36:37;;;;;;;11.27;6.80;;;;;;;4.23;100.00;147262.53;5005164;28;20228;-56
2023/12/15 01:39:04;;;;;;;12.53;7.47;;;;;;;4.18;100.00;147250.16;5001515;28;20239;-55
2023/12/15 01:41:31;;;;;;;11.97;6.40;;;;;;;4.22;100.00;147260.06;5004775;28;20572;-55
2023/12/15 01:43:58;;;;;;;11.50;6.63;;;;;;;4.24;100.00;147264.97;4922515;28;20286;-55
2023/12/15 01:46:25;;;;;;;9.80;5.67;;;;;;;4.30;100.00;147278.66;4956407;28;20266;-56
2023/12/15 01:48:53;;;;;;;11.33;6.93;;;;;;;4.27;100.00;147272.41;5004609;28;20243;-56
2023/12/15 01:51:46;;;;;;;16.13;7.53;;;;;;;4.28;100.00;147274.91;4952705;28;20410;-56
2023/12/15 01:54:13;;;;;;;15.63;7.67;;;;;;;4.25;100.00;147267.47;4956796;28;20313;-57
2023/12/15 01:57:05;;;;;;;14.47;7.20;;;;;;;4.26;100.00;147269.94;4977870;28;20235;-56
2023/12/15 01:59:45;;;;;;;14.50;7.47;;;;;;;4.26;100.00;147268.72;4987724;28;20323;-56
2023/12/15 02:02:11;;;;;;;14.83;7.97;;;;;;;4.24;100.00;147264.97;5007610;28;20212;-55
2023/12/15 02:05:04;;;;;;;14.70;7.43;;;;;;;4.28;100.00;147273.69;5003165;28;20286;-56
2023/12/15 02:07:59;;;;;;;13.17;6.50;;;;;;;4.30;100.00;147278.66;5009135;28;20610;-55
2023/12/15 02:10:50;;;;;;;13.90;7.30;;;;;;;4.31;100.00;147279.84;5005592;28;20231;-55
2023/12/15 02:13:42;;;;;;;17.10;7.83;;;;;;;4.32;100.00;147283.59;5003805;28;20231;-56
2023/12/15 02:16:09;;;;;;;15.57;7.63;;;;;;;4.33;100.00;147286.09;5002286;28;20327;-54
2023/12/15 02:18:36;;;;;;;13.57;7.53;;;;;;;4.36;100.00;147292.25;5005582;28;20233;-56
2023/12/15 02:21:03;;;;;;;10.93;6.40;;;;;;;4.39;100.00;147299.69;4999469;28;20252;-56
2023/12/15 02:23:31;;;;;;;15.17;8.27;;;;;;;4.37;100.00;147296.00;5004667;28;20232;-53
2023/12/15 02:25:57;;;;;;;15.00;7.80;;;;;;;4.35;100.00;147289.78;5001732;28;20579;-56
2023/12/15 02:28:24;;;;;;;16.73;8.07;;;;;;;4.31;100.00;147281.13;5005235;28;20232;-57
2023/12/15 02:30:51;;;;;;;13.00;7.50;;;;;;;4.33;100.00;147284.81;5000258;28;20575;-56
2023/12/15 02:33:17;;;;;;;16.07;7.43;;;;;;;4.36;100.00;147292.25;5003771;28;20235;-56
2023/12/15 02:35:47;;;;;;;14.17;7.20;;;;;;;4.37;100.00;147296.00;5008171;28;20271;-55
2023/12/15 02:38:18;;;;;;;15.83;8.37;;;;;;;4.38;100.00;147297.22;5002413;28;20252;-56
2023/12/15 02:40:46;;;;;;;15.40;7.50;;;;;;;4.36;100.00;147292.25;5000871;28;20244;-55
2023/12/15 02:43:12;;;;;;;17.90;7.93;;;;;;;4.38;100.00;147297.22;5000998;28;20228;-55
2023/12/15 02:45:39;;;;;;;15.33;7.87;;;;;;;4.40;100.00;147302.19;4998275;28;20552;-55
2023/12/15 02:48:06;;;;;;;18.33;8.30;;;;;;;4.46;100.00;147317.06;5001368;28;20220;-56
2023/12/15 02:50:32;;;;;;;16.60;7.93;;;;;;;4.42;100.00;147308.41;4993469;28;20616;-54
2023/12/15 02:52:59;;;;;;;15.53;8.13;;;;;;;4.48;100.00;147320.81;5016406;28;20217;-53
2023/12/15 02:55:25;;;;;;;19.13;9.00;;;;;;;4.43;100.00;147310.88;5003444;28;20220;-56
2023/12/15 02:57:53;;;;;;;16.60;9.20;;;;;;;4.44;100.00;147312.09;5007053;28;20587;-56
2023/12/15 03:00:20;;;;;;;21.83;10.17;;;;;;;4.46;100.00;147317.06;5001786;28;20227;-56
2023/12/15 03:02:46;;;;;;;19.53;10.13;;;;;;;4.51;100.00;147328.25;5000730;28;20676;-56
2023/12/15 03:05:13;;;;;;;17.80;9.73;;;;;;;4.55;100.00;147338.19;4990540;28;20231;-56
2023/12/15 03:07:40;;;;;;;21.93;9.40;;;;;;;4.60;100.00;147350.59;5009079;28;20234;-56
2023/12/15 03:10:07;;;;;;;15.70;9.07;;;;;;;4.64;100.00;147360.50;5000867;28;20735;-55
2023/12/15 03:12:33;;;;;;;21.00;10.63;;;;;;;4.60;100.00;147350.59;5006986;28;20221;-54
2023/12/15 03:15:01;;;;;;;19.43;10.37;;;;;;;4.61;100.00;147353.06;5005072;28;20240;-53
2023/12/15 03:17:30;;;;;;;18.43;10.30;;;;;;;4.61;100.00;147353.06;5009308;28;20232;-54
2023/12/15 03:19:56;;;;;;;19.07;9.60;;;;;;;4.64;100.00;147360.50;5000583;28;20224;-55
2023/12/15 03:22:23;;;;;;;18.50;10.20;;;;;;;4.65;100.00;147361.72;5006254;28;20320;-55
2023/12/15 03:24:50;;;;;;;23.27;10.70;;;;;;;4.65;100.00;147361.72;4997370;28;20311;-56
2023/12/15 03:27:16;;;;;;;19.47;9.80;;;;;;;4.68;100.00;147370.44;5008365;28;20239;-55
2023/12/15 03:29:44;;;;;;;21.40;10.67;;;;;;;4.71;100.00;147377.88;5008878;28;20237;-53
2023/12/15 03:32:12;;;;;;;19.27;9.37;;;;;;;4.73;100.00;147381.56;5007717;28;20245;-56
2023/12/15 03:34:38;;;;;;;19.73;10.27;;;;;;;4.75;100.00;147386.53;5008305;28;20216;-54
2023/12/15 03:37:05;;;;;;;20.40;10.67;;;;;;;4.79;100.00;147396.47;5003395;28;20308;-55
2023/12/15 03:39:32;;;;;;;25.60;11.70;;;;;;;4.76;100.00;147389.00;5006644;28;20244;-56
2023/12/15 03:42:01;;;;;;;21.17;9.87;;;;;;;4.78;100.00;147393.97;5005119;28;20232;-53
2023/12/15 03:44:27;;;;;;;18.17;10.27;;;;;;;4.81;100.00;147401.41;5006021;28;20247;-54
2023/12/15 03:46:54;;;;;;;20.03;10.67;;;;;;;4.81;100.00;147400.16;5001610;28;20224;-56
2023/12/15 03:49:22;;;;;;;20.73;10.90;;;;;;;4.84;100.00;147407.59;5006443;28;20247;-56
2023/12/15 03:51:48;;;;;;;19.10;10.43;;;;;;;4.85;100.00;147411.34;5004569;28;20228;-56
2023/12/15 03:54:15;;;;;;;19.77;10.57;;;;;;;4.92;100.00;147426.22;5007168;28;20733;-53
2023/12/15 03:56:42;;;;;;;18.80;10.70;;;;;;;4.88;100.00;147417.53;5007258;28;20225;-55
2023/12/15 03:59:08;;;;;;;20.70;11.57;;;;;;;4.86;100.00;147412.56;5002723;28;20288;-56
2023/12/15 04:04:16;;;;;;;21.00;11.30;;;;;;;4.89;100.00;147420.00;5549713;23;20761;-55
2023/12/15 04:06:45;;;;;;;22.90;11.17;;;;;;;4.88;100.00;147418.78;4990836;28;20775;-56
2023/12/15 04:09:11;;;;;;;19.83;10.93;;;;;;;4.94;100.00;147431.19;5002468;28;20560;-55
2023/12/15 04:11:38;;;;;;;18.57;10.27;;;;;;;4.91;100.00;147423.75;4996140;28;20220;-56
2023/12/15 04:14:06;;;;;;;18.40;10.67;;;;;;;4.91;100.00;147423.75;4990128;28;20229;-54
2023/12/15 04:16:33;;;;;;;22.03;11.03;;;;;;;4.92;100.00;147427.44;4986247;28;20249;-56
2023/12/15 04:18:59;;;;;;;18.27;10.53;;;;;;;4.92;100.00;147427.44;4982905;28;20364;-56
2023/12/15 04:21:27;;;;;;;20.17;10.47;;;;;;;4.94;100.00;147432.41;4968143;28;20791;-56
2023/12/15 04:23:55;;;;;;;22.43;10.90;;;;;;;4.94;100.00;147431.19;4981805;28;20243;-56
2023/12/15 04:26:21;;;;;;;17.50;9.97;;;;;;;4.97;100.00;147438.63;4971115;28;20225;-55
2023/12/15 04:28:48;;;;;;;17.07;10.40;;;;;;;4.94;100.00;147431.19;4986662;28;20225;-53
2023/12/15 04:31:14;;;;;;;18.83;10.53;;;;;;;4.98;100.00;147441.13;5211285;23;20215;-55
2023/12/15 04:33:41;;;;;;;18.30;10.27;;;;;;;4.99;100.00;147444.81;5004274;28;20234;-57
2023/12/15 04:36:09;;;;;;;18.33;10.27;;;;;;;5.00;100.00;147446.09;5001513;28;20204;-57
2023/12/15 04:38:36;;;;;;;16.83;9.20;;;;;;;5.00;100.00;147446.09;5003492;28;20271;-58
2023/12/15 04:41:04;;;;;;;17.90;10.50;;;;;;;4.99;100.00;147443.59;4999219;28;20228;-57
2023/12/15 04:43:31;;;;;;;16.53;9.43;;;;;;;4.93;100.00;147429.94;5001999;28;20264;-57
2023/12/15 04:45:58;;;;;;;18.23;9.07;;;;;;;4.98;100.00;147442.34;5000130;28;20230;-57
2023/12/15 04:48:24;;;;;;;16.90;9.83;;;;;;;4.98;100.00;147442.34;5001576;28;20235;-58
2023/12/15 04:50:52;;;;;;;18.33;9.57;;;;;;;5.00;100.00;147446.09;4999117;28;20245;-57
2023/12/15 04:53:18;;;;;;;19.83;9.50;;;;;;;4.97;100.00;147438.63;5003602;28;20590;-58
2023/12/15 04:55:45;;;;;;;16.80;9.30;;;;;;;4.97;100.00;147438.63;5004078;28;20235;-58
2023/12/15 04:58:13;;;;;;;16.67;9.63;;;;;;;4.98;100.00;147441.13;5000368;28;20318;-58
2023/12/15 05:00:39;;;;;;;17.07;9.23;;;;;;;4.99;100.00;147444.81;5001574;28;20718;-58
2023/12/15 05:03:06;;;;;;;17.00;9.67;;;;;;;4.97;100.00;147438.63;5000910;28;20228;-59
2023/12/15 05:05:33;;;;;;;19.40;9.63;;;;;;;4.98;100.00;147441.13;5002159;28;20232;-58
2023/12/15 05:07:59;;;;;;;13.53;8.57;;;;;;;4.98;100.00;147442.34;5000720;28;20714;-58
2023/12/15 05:10:26;;;;;;;15.07;8.60;;;;;;;4.99;100.00;147443.59;5002733;28;20231;-58
2023/12/15 05:12:52;;;;;;;19.37;9.70;;;;;;;4.98;100.00;147442.34;4997354;28;20227;-58
2023/12/15 05:15:21;;;;;;;18.07;9.20;;;;;;;4.98;100.00;147441.13;4998909;28;20251;-58
2023/12/15 05:17:47;;;;;;;15.40;8.40;;;;;;;4.95;100.00;147433.69;5000483;28;20220;-58
2023/12/15 05:20:14;;;;;;;19.03;9.20;;;;;;;4.99;100.00;147444.81;5002288;28;20240;-58
2023/12/15 05:22:41;;;;;;;17.43;8.63;;;;;;;4.99;100.00;147443.59;5002700;28;20583;-58
2023/12/15 05:25:08;;;;;;;17.87;9.87;;;;;;;4.98;100.00;147442.34;5000029;28;20227;-58
2023/12/15 05:27:35;;;;;;;18.67;9.63;;;;;;;5.00;100.00;147447.31;5001265;28;20227;-58
2023/12/15 05:30:02;;;;;;;14.33;8.70;;;;;;;5.02;100.00;147451.06;4996370;28;20234;-58
2023/12/15 05:32:30;;;;;;;16.13;9.40;;;;;;;5.02;100.00;147452.25;4992286;28;20285;-59
2023/12/15 05:34:57;;;;;;;16.60;8.53;;;;;;;5.01;100.00;147448.56;4999284;28;20247;-58
2023/12/15 05:37:23;;;;;;;16.03;9.13;;;;;;;5.05;100.00;147457.22;5002629;28;20742;-58
2023/12/15 05:39:50;;;;;;;16.63;8.43;;;;;;;5.03;100.00;147453.53;4999767;28;20235;-58
2023/12/15 05:42:17;;;;;;;14.80;8.43;;;;;;;5.06;100.00;147460.97;4997462;28;20345;-59
2023/12/15 05:44:43;;;;;;;16.17;8.90;;;;;;;5.06;100.00;147459.72;5000749;28;20224;-58
2023/12/15 05:47:10;;;;;;;25.93;11.97;;;;;;;5.07;100.00;147462.19;4997381;28;20243;-58
2023/12/15 05:49:40;;;;;;;19.33;9.47;;;;;;;5.07;100.00;147463.47;5002518;28;20231;-58
2023/12/15 05:52:08;;;;;;;31.87;14.30;;;;;;;5.07;100.00;147463.47;4998927;28;20295;-59
2023/12/15 05:54:34;;;;;;;29.47;12.60;;;;;;;5.07;100.00;147463.47;5001997;28;20771;-58
2023/12/15 05:57:01;;;;;;;30.67;12.10;;;;;;;5.04;100.00;147456.00;4996291;28;20228;-58
2023/12/15 05:59:28;;;;;;;19.10;10.10;;;;;;;5.06;100.00;147459.72;4999970;28;20233;-57
2023/12/15 06:01:54;;;;;;;15.60;9.93;;;;;;;5.03;100.00;147454.75;4994375;28;20243;-59
2023/12/15 06:04:21;;;;;;;15.87;9.50;;;;;;;5.05;100.00;147458.50;4999707;28;20224;-57
2023/12/15 06:06:49;;;;;;;16.47;8.20;;;;;;;5.09;100.00;147467.16;4999983;28;20239;-59
2023/12/15 06:09:16;;;;;;;18.73;9.73;;;;;;;5.02;100.00;147452.25;4997337;28;20399;-58
2023/12/15 06:11:43;;;;;;;29.97;24.13;;;;;;;5.09;100.00;147467.16;5009431;28;20234;-58
2023/12/15 06:14:10;;;;;;;15.57;8.53;;;;;;;5.02;100.00;147452.25;4999537;28;20568;-57
2023/12/15 06:16:37;;;;;;;15.83;9.10;;;;;;;5.02;100.00;147451.06;4993442;28;20232;-58
2023/12/15 06:19:04;;;;;;;17.07;10.20;;;;;;;4.96;100.00;147436.16;4998562;28;20240;-58
2023/12/15 06:21:30;;;;;;;18.73;9.43;;;;;;;4.97;100.00;147438.63;5002456;28;20229;-58
2023/12/15 06:23:58;;;;;;;13.73;7.73;;;;;;;4.93;100.00;147429.94;4996666;28;20240;-56
2023/12/15 06:26:26;;;;;;;16.00;8.60;;;;;;;4.91;100.00;147423.75;5000355;28;20552;-58
2023/12/15 06:28:54;;;;;;;17.50;8.87;;;;;;;4.92;100.00;147426.22;4999972;28;20271;-58
2023/12/15 06:31:20;;;;;;;15.27;9.10;;;;;;;4.95;100.00;147433.69;5000598;28;20226;-58
2023/12/15 06:33:47;;;;;;;16.83;9.67;;;;;;;4.90;100.00;147421.28;5012562;28;20244;-58
2023/12/15 06:36:14;;;;;;;15.37;8.43;;;;;;;4.84;100.00;147408.88;5001465;28;20314;-57
2023/12/15 06:38:43;;;;;;;16.60;8.63;;;;;;;4.90;100.00;147421.28;5004522;28;20231;-59
2023/12/15 06:41:11;;;;;;;17.20;8.57;;;;;;;4.84;100.00;147408.88;5002188;28;20897;-59
2023/12/15 06:43:39;;;;;;;18.30;8.80;;;;;;;4.85;100.00;147410.06;5000970;28;20224;-58
2023/12/15 06:46:06;;;;;;;15.53;8.20;;;;;;;4.83;100.00;147406.38;5003523;28;20236;-59
2023/12/15 06:48:33;;;;;;;15.47;8.10;;;;;;;4.87;100.00;147416.31;5003890;28;20239;-59
2023/12/15 06:51:00;;;;;;;16.10;9.20;;;;;;;4.86;100.00;147412.56;5000733;28;20623;-59
2023/12/15 06:53:26;;;;;;;16.63;9.03;;;;;;;4.85;100.00;147410.06;5002625;28;20607;-56
2023/12/15 06:55:53;;;;;;;17.03;8.33;;;;;;;4.84;100.00;147408.88;4996940;28;20757;-58
2023/12/15 06:58:21;;;;;;;15.40;8.50;;;;;;;4.86;100.00;147413.81;5005536;28;20242;-58
2023/12/15 07:00:48;;;;;;;14.00;7.77;;;;;;;4.82;100.00;147403.91;5003328;28;20237;-58
2023/12/15 07:03:14;;;;;;;17.17;10.70;;;;;;;4.84;100.00;147407.59;5000145;28;20510;-58
2023/12/15 07:05:41;;;;;;;15.90;8.77;;;;;;;4.86;100.00;147413.81;5004481;28;20212;-58
2023/12/15 07:08:08;;;;;;;12.73;8.43;;;;;;;4.88;100.00;147417.53;5001635;28;20241;-57
2023/12/15 07:10:34;;;;;;;16.20;8.77;;;;;;;4.85;100.00;147410.06;4993265;28;20790;-57
2023/12/15 07:13:01;;;;;;;13.77;8.30;;;;;;;4.87;100.00;147416.31;5002587;28;20603;-56
2023/12/15 07:15:29;;;;;;;16.00;9.13;;;;;;;4.82;100.00;147403.91;5004013;28;20243;-57
2023/12/15 07:17:56;;;;;;;14.77;9.00;;;;;;;4.88;100.00;147418.78;4991490;28;20270;-58
2023/12/15 07:20:25;;;;;;;16.73;9.23;;;;;;;4.84;100.00;147408.88;5002208;28;20240;-58
2023/12/15 07:22:51;;;;;;;16.90;9.00;;;;;;;4.91;100.00;147423.75;4993355;28;20248;-58
2023/12/15 07:25:18;;;;;;;17.00;9.50;;;;;;;4.91;100.00;147423.75;5003607;28;20285;-58
2023/12/15 07:27:45;;;;;;;15.00;9.03;;;;;;;4.92;100.00;147426.22;5005215;28;20237;-58
2023/12/15 07:30:12;;;;;;;17.67;8.93;;;;;;;4.81;100.00;147400.16;5003857;28;20240;-57
2023/12/15 07:32:40;;;;;;;18.40;9.40;;;;;;;4.91;100.00;147423.75;5003985;28;20241;-58
2023/12/15 07:35:08;;;;;;;15.03;8.83;;;;;;;4.93;100.00;147429.94;4999837;28;20365;-58
2023/12/15 07:37:35;;;;;;;16.07;8.57;;;;;;;4.92;100.00;147426.22;5000212;28;20221;-56
2023/12/15 07:40:03;;;;;;;16.73;8.23;;;;;;;4.93;100.00;147429.94;4997498;28;20248;-58
2023/12/15 07:42:30;;;;;;;16.77;9.73;;;;;;;4.96;100.00;147437.38;5004977;28;20267;-58
2023/12/15 07:44:56;;;;;;;13.40;7.97;;;;;;;5.01;100.00;147449.78;5003113;28;20716;-58
2023/12/15 07:47:23;;;;;;;14.23;8.60;;;;;;;5.01;100.00;147448.56;4995744;28;20244;-56
2023/12/15 07:49:51;;;;;;;18.07;8.73;;;;;;;5.08;100.00;147465.94;5002169;28;20299;-57
2023/12/15 07:52:18;;;;;;;16.93;9.77;;;;;;;5.07;100.00;147463.47;5000112;28;20602;-58
2023/12/15 07:54:46;;;;;;;16.17;8.67;;;;;;;5.00;100.00;147446.09;5003068;28;20267;-57
2023/12/15 07:57:15;;;;;;;18.80;8.63;;;;;;;5.04;100.00;147456.00;5002546;28;20252;-58
2023/12/15 07:59:42;;;;;;;21.57;11.93;;;;;;;5.08;100.00;147465.94;4998027;28;20272;-56
2023/12/15 08:02:08;;;;;;;15.93;9.23;;;;;;;5.15;100.00;147483.31;4996917;28;20232;-57
2023/12/15 08:04:35;;;;;;;17.17;8.33;;;;;;;5.17;100.00;147487.00;4998031;28;20228;-57
2023/12/15 08:07:03;;;;;;;16.20;8.43;;;;;;;5.23;100.00;147500.69;4999878;28;20216;-57
2023/12/15 08:09:29;;;;;;;18.20;10.40;;;;;;;5.28;100.00;147513.09;5002262;28;20224;-57
2023/12/15 08:11:56;;;;;;;15.27;8.33;;;;;;;5.27;100.00;147510.63;5000448;28;20771;-57
2023/12/15 08:14:24;;;;;;;19.40;9.77;;;;;;;5.31;100.00;147520.50;5002126;28;20243;-57
2023/12/15 08:16:50;;;;;;;58.47;19.33;;;;;;;5.36;100.00;147532.91;5003103;28;20223;-56
2023/12/15 08:19:17;;;;;;;15.20;8.80;;;;;;;5.47;100.00;147559.00;4990269;28;20233;-58
2023/12/15 08:21:44;;;;;;;15.03;8.73;;;;;;;5.35;100.00;147530.44;4998093;28;20251;-58
2023/12/15 08:24:12;;;;;;;13.73;8.37;;;;;;;5.39;100.00;147539.13;4998379;28;21045;-57
2023/12/15 08:26:38;;;;;;;19.50;9.17;;;;;;;5.41;100.00;147544.09;4994567;28;20223;-57
2023/12/15 08:29:05;;;;;;;14.70;8.37;;;;;;;5.41;100.00;147545.31;4999484;28;20693;-58
2023/12/15 08:31:32;;;;;;;15.60;9.30;;;;;;;5.32;100.00;147524.25;5002471;28;20251;-56
2023/12/15 08:33:58;;;;;;;18.37;9.20;;;;;;;5.29;100.00;147515.56;5000277;28;20232;-58
2023/12/15 08:36:25;;;;;;;26.20;13.67;;;;;;;5.23;100.00;147500.69;5003929;28;20239;-56
2023/12/15 08:38:51;;;;;;;17.13;8.07;;;;;;;5.24;100.00;147503.16;4995297;28;20237;-58
2023/12/15 08:41:19;;;;;;;15.27;8.13;;;;;;;5.17;100.00;147487.00;5001181;28;20263;-57
2023/12/15 08:43:46;;;;;;;19.33;11.10;;;;;;;5.23;100.00;147501.91;5003830;28;20219;-58
2023/12/15 08:46:13;;;;;;;17.00;10.47;;;;;;;5.31;100.00;147521.75;5000248;28;20232;-55
2023/12/15 08:48:39;;;;;;;21.10;11.87;;;;;;;5.40;100.00;147541.63;4993387;28;20228;-58
2023/12/15 08:51:07;;;;;;;17.47;8.80;;;;;;;5.55;100.00;147578.84;4997800;28;20229;-58
2023/12/15 08:53:33;;;;;;;12.97;8.27;;;;;;;5.75;100.00;147627.25;5003584;28;20231;-58
2023/12/15 08:56:00;;;;;;;14.47;8.23;;;;;;;5.81;100.00;147640.94;5001437;28;20263;-56
2023/12/15 08:58:28;;;;;;;12.50;7.80;;;;;;;5.96;100.00;147675.63;5004331;28;20243;-57
2023/12/15 09:00:55;;;;;;;14.00;7.97;;;;;;;6.05;100.00;147699.31;4996964;28;20751;-58
2023/12/15 09:03:22;;;;;;;17.10;8.10;;;;;;;6.13;100.00;147717.91;5003036;28;20236;-58
2023/12/15 09:05:48;;;;;;;12.73;7.77;;;;;;;6.30;100.00;147758.91;5002197;28;20229;-58
2023/12/15 09:08:15;;;;;;;14.30;7.40;;;;;;;6.20;100.00;147734.06;5001007;28;20240;-57
2023/12/15 09:10:43;;;;;;;13.70;7.20;;;;;;;6.35;100.00;147771.34;5004282;28;20243;-58
2023/12/15 09:13:10;;;;;;;13.67;7.73;;;;;;;6.47;100.00;147799.88;5000506;28;20221;-55
2023/12/15 09:15:38;;;;;;;13.83;7.37;;;;;;;6.46;100.00;147796.13;5002107;28;20228;-58
2023/12/15 09:18:05;;;;;;;12.13;7.27;;;;;;;6.56;100.00;147819.75;4995624;28;20225;-58
2023/12/15 09:20:33;;;;;;;13.63;7.50;;;;;;;6.47;100.00;147798.59;5002152;28;20228;-58
2023/12/15 09:22:59;;;;;;;13.77;7.47;;;;;;;6.69;100.00;147850.78;5000673;28;20235;-57
2023/12/15 09:25:26;;;;;;;13.47;7.27;;;;;;;6.81;100.00;147879.38;5000311;28;20225;-58
2023/12/15 09:27:53;;;;;;;12.60;7.40;;;;;;;6.77;100.00;147870.66;4999084;28;20232;-58
2023/12/15 09:30:20;;;;;;;14.13;7.43;;;;;;;6.87;100.00;147894.28;5000194;28;20227;-57
2023/12/15 09:32:48;;;;;;;10.67;6.10;;;;;;;6.99;100.00;147924.06;5004328;28;20224;-58
2023/12/15 09:35:17;;;;;;;12.80;6.87;;;;;;;7.07;100.00;147943.94;4998705;28;20562;-58
2023/12/15 09:37:44;;;;;;;12.17;6.73;;;;;;;7.21;100.00;147977.53;5000830;28;20741;-57
2023/12/15 09:40:11;;;;;;;12.07;6.80;;;;;;;7.21;99.42;147976.25;4997519;28;20233;-57
2023/12/15 09:42:38;;;;;;;10.50;5.67;;;;;;;7.21;98.33;147976.25;5002304;28;20243;-58
2023/12/15 09:45:05;;;;;;;11.20;6.07;;;;;;;7.23;98.33;147982.50;4986508;28;20233;-57
2023/12/15 09:47:36;;;;;;;13.07;7.83;;;;;;;7.15;98.52;147961.34;5002980;28;20239;-58
2023/12/15 09:50:05;;;;;;;11.17;5.33;;;;;;;7.09;98.70;147947.69;4998258;28;20221;-58
2023/12/15 09:52:33;;;;;;;17.60;6.47;;;;;;;7.34;100.00;148008.56;5003166;28;20240;-57
2023/12/15 09:55:00;;;;;;;14.50;6.00;;;;;;;7.47;100.00;148039.63;5000575;28;20241;-56
2023/12/15 09:57:27;;;;;;;11.60;5.20;;;;;;;7.45;97.96;148034.63;4994518;28;20239;-55
2023/12/15 09:59:54;;;;;;;9.93;5.60;;;;;;;7.64;97.42;148080.66;5011040;28;20242;-57
2023/12/15 10:02:21;;;;;;;9.77;5.00;;;;;;;7.77;96.86;148111.72;4994698;28;20241;-58
2023/12/15 10:04:48;;;;;;;7.43;4.60;;;;;;;7.89;94.16;148139.06;5005452;28;20237;-58
2023/12/15 10:07:16;;;;;;;14.70;7.97;;;;;;;8.10;90.63;148191.28;5004614;28;20248;-57
2023/12/15 10:09:43;;;;;;;6.97;4.00;;;;;;;7.84;92.07;148127.91;5005066;28;20256;-58
2023/12/15 10:12:10;;;;;;;9.20;4.47;;;;;;;7.82;92.89;148124.16;4993452;28;20242;-58
2023/12/15 10:14:37;;;;;;;8.27;4.03;;;;;;;7.83;93.24;148125.41;5004610;28;20237;-57
2023/12/15 10:17:04;;;;;;;6.23;3.33;;;;;;;7.96;91.82;148157.69;5002079;28;20283;-57
2023/12/15 10:19:31;;;;;;;10.13;5.50;;;;;;;7.89;90.36;148139.06;5006689;28;20221;-57
2023/12/15 10:21:58;;;;;;;8.33;3.83;;;;;;;7.88;91.19;148137.84;4993620;28;20240;-59
2023/12/15 10:24:26;;;;;;;6.37;4.20;;;;;;;7.88;89.94;148136.56;4991456;28;20240;-58
2023/12/15 10:26:52;;;;;;;5.47;3.27;;;;;;;7.90;88.88;148141.56;5003611;28;20588;-58
2023/12/15 10:29:20;;;;;;;7.50;3.17;;;;;;;7.91;89.87;148144.03;5006434;28;20230;-58
2023/12/15 10:31:49;;;;;;;7.50;4.07;;;;;;;7.92;86.02;148147.78;5004095;28;20236;-58
2023/12/15 10:34:16;;;;;;;4.33;2.20;;;;;;;8.07;85.35;148183.81;5003822;28;20234;-58
2023/12/15 10:36:46;;;;;;;6.07;2.20;;;;;;;8.01;85.72;148167.63;5007280;28;20233;-58
2023/12/15 10:39:13;;;;;;;17.67;8.10;;;;;;;7.95;86.06;148153.97;4999602;28;20314;-57
2023/12/15 10:41:43;;;;;;;10.10;3.67;;;;;;;8.11;86.94;148192.50;5004875;28;20691;-58
2023/12/15 10:44:12;;;;;;;11.47;5.43;;;;;;;8.12;85.32;148196.25;5002146;28;20379;-57
2023/12/15 10:46:41;;;;;;;5.93;2.67;;;;;;;8.05;85.31;148178.84;5004625;28;20309;-58
2023/12/15 10:49:09;;;;;;;7.70;2.70;;;;;;;8.15;85.65;148201.22;5004084;28;20223;-58
2023/12/15 10:51:38;;;;;;;4.43;1.80;;;;;;;7.97;84.90;148158.97;5005712;28;20291;-59
2023/12/15 10:54:06;;;;;;;4.93;2.53;;;;;;;8.18;83.66;148208.69;4992828;28;20216;-59
2023/12/15 10:56:33;;;;;;;3.80;2.00;;;;;;;8.13;84.56;148198.75;5006508;28;20721;-58
2023/12/15 10:59:01;;;;;;;4.73;2.00;;;;;;;8.29;83.95;148236.06;5003240;28;20234;-58
2023/12/15 11:01:28;;;;;;;3.73;1.43;;;;;;;7.97;85.52;148160.19;5003998;28;20636;-59
2023/12/15 11:03:55;;;;;;;5.90;2.03;;;;;;;8.13;83.15;148197.47;5000194;28;20225;-59
2023/12/15 11:06:30;;;;;;;2.57;1.30;;;;;;;8.13;83.20;148197.47;5004750;28;20236;-57
2023/12/15 11:09:00;;;;;;;2.77;1.40;;;;;;;8.27;82.91;148232.31;4999359;28;20237;-58
2023/12/15 11:11:29;;;;;;;3.90;1.60;;;;;;;8.41;82.72;148265.91;5026261;23;20225;-58
2023/12/15 11:14:02;;;;;;;4.30;1.33;;;;;;;8.49;81.44;148284.59;5008783;28;20217;-59
2023/12/15 11:16:30;;;;;;;5.40;1.70;;;;;;;8.63;79.62;148318.16;5009785;28;20435;-59
2023/12/15 11:18:59;;;;;;;2.57;1.30;;;;;;;8.52;80.88;148292.06;5007651;28;20563;-59
2023/12/15 11:21:26;;;;;;;4.47;1.70;;;;;;;8.38;82.04;148257.19;5014012;28;20278;-56